createdAt,value
2022-09-11T00:01:35.058Z,94.40
2022-09-11T00:04:02.832Z,94.70
2022-09-11T00:06:33.180Z,95.00
2022-09-11T00:09:02.522Z,95.20
2022-09-11T00:11:49.665Z,95.40
2022-09-11T00:14:16.435Z,95.70
2022-09-11T00:16:45.973Z,96.00
2022-09-11T00:19:19.188Z,96.10
2022-09-11T00:21:47.099Z,96.30
2022-09-11T00:24:14.240Z,96.20
2022-09-11T00:26:42.490Z,96.10
2022-09-11T00:29:09.782Z,96.20
2022-09-11T00:31:36.751Z,96.20
2022-09-11T00:34:03.846Z,96.20
2022-09-11T00:36:35.750Z,96.80
2022-09-11T00:39:02.573Z,96.90
2022-09-11T00:41:33.431Z,97.10
2022-09-11T00:44:12.784Z,97.40
2022-09-11T00:46:49.832Z,97.50
2022-09-11T00:49:34.743Z,98.10
2022-09-11T00:52:17.540Z,98.20
2022-09-11T00:55:07.270Z,98.40
2022-09-11T00:57:40.660Z,98.60
2022-09-11T01:00:09.184Z,98.40
2022-09-11T01:02:38.415Z,97.90
2022-09-11T01:05:06.113Z,97.60
2022-09-11T01:07:35.607Z,97.40
2022-09-11T01:10:07.147Z,96.90
2022-09-11T01:13:05.770Z,96.60
2022-09-11T01:16:04.182Z,96.20
2022-09-11T01:18:42.557Z,95.90
2022-09-11T01:21:40.892Z,95.70
2022-09-11T01:24:44.285Z,95.50
2022-09-11T01:27:39.515Z,95.40
2022-09-11T01:30:16.371Z,95.00
2022-09-11T01:33:01.832Z,94.70
2022-09-11T01:36:05.163Z,94.50
2022-09-11T01:38:39.090Z,94.50
2022-09-11T01:41:37.753Z,94.60
2022-09-11T01:44:11.822Z,94.60
2022-09-11T01:46:44.367Z,95.00
2022-09-11T01:49:18.928Z,95.20
2022-09-11T01:51:47.539Z,95.50
2022-09-11T01:54:18.661Z,95.70
2022-09-11T01:56:53.443Z,96.10
2022-09-11T01:59:28.508Z,96.40
2022-09-11T02:02:11.051Z,96.60
2022-09-11T02:04:49.755Z,96.80
2022-09-11T02:07:25.146Z,97.00
2022-09-11T02:10:07.567Z,97.10
2022-09-11T02:12:51.814Z,97.30
2022-09-11T02:15:18.937Z,97.90
2022-09-11T02:18:06.033Z,98.30
2022-09-11T02:20:34.322Z,98.80
2022-09-11T02:23:01.080Z,99.00
2022-09-11T02:25:27.916Z,99.30
2022-09-11T02:27:55.044Z,99.90
2022-09-11T02:30:21.824Z,99.90
2022-09-11T02:32:48.701Z,99.90
2022-09-11T02:35:16.404Z,99.90
2022-09-11T02:38:18.382Z,99.90
2022-09-11T02:41:02.936Z,99.90
2022-09-11T02:43:42.635Z,99.90
2022-09-11T02:46:34.420Z,99.90
2022-09-11T02:49:07.881Z,99.90
2022-09-11T02:51:59.279Z,99.90
2022-09-11T02:54:50.996Z,99.90
2022-09-11T02:57:32.400Z,99.90
2022-09-11T03:00:01.835Z,99.90
2022-09-11T03:02:33.971Z,99.90
2022-09-11T03:05:00.729Z,99.90
2022-09-11T03:07:29.974Z,99.90
2022-09-11T03:09:58.894Z,99.90
2022-09-11T03:12:27.236Z,99.90
2022-09-11T03:14:57.190Z,99.90
2022-09-11T03:17:25.434Z,99.90
2022-09-11T03:19:52.305Z,99.30
2022-09-11T03:22:22.382Z,98.80
2022-09-11T03:24:51.284Z,98.40
2022-09-11T03:27:18.028Z,98.20
2022-09-11T03:29:47.370Z,97.90
2022-09-11T03:32:14.162Z,97.60
2022-09-11T03:34:40.894Z,97.20
2022-09-11T03:37:10.268Z,97.20
2022-09-11T03:39:37.057Z,97.10
2022-09-11T03:42:04.008Z,97.10
2022-09-11T03:44:30.843Z,96.90
2022-09-11T03:47:00.235Z,97.00
2022-09-11T03:49:29.426Z,97.20
2022-09-11T03:51:57.126Z,97.10
2022-09-11T03:54:23.874Z,96.90
2022-09-11T03:56:53.418Z,97.00
2022-09-11T03:59:20.405Z,96.80
2022-09-11T04:01:50.139Z,96.30
2022-09-11T04:04:17.436Z,96.20
2022-09-11T04:06:46.979Z,96.20
2022-09-11T04:09:13.734Z,96.40
2022-09-11T04:11:40.913Z,96.20
2022-09-11T04:14:08.829Z,96.20
2022-09-11T04:16:36.452Z,96.50
2022-09-11T04:19:04.183Z,97.00
2022-09-11T04:21:32.184Z,97.40
2022-09-11T04:24:01.099Z,98.10
2022-09-11T04:26:33.518Z,99.20
2022-09-11T04:29:01.194Z,99.80
2022-09-11T04:31:28.619Z,99.90
2022-09-11T04:33:57.901Z,99.90
2022-09-11T04:36:29.889Z,99.90
2022-09-11T04:38:58.772Z,99.90
2022-09-11T04:41:26.297Z,99.90
2022-09-11T04:44:02.454Z,99.90
2022-09-11T04:46:31.600Z,99.90
2022-09-11T04:49:03.603Z,99.90
2022-09-11T04:51:36.527Z,99.90
2022-09-11T04:54:04.372Z,99.90
2022-09-11T04:56:34.291Z,99.90
2022-09-11T04:59:05.702Z,99.90
2022-09-11T05:01:35.590Z,99.90
2022-09-11T05:04:02.551Z,99.90
2022-09-11T05:06:30.536Z,99.30
2022-09-11T05:09:02.977Z,99.10
2022-09-11T05:11:30.204Z,98.20
2022-09-11T05:14:00.423Z,97.70
2022-09-11T05:16:34.594Z,97.20
2022-09-11T05:19:02.308Z,97.20
2022-09-11T05:21:32.065Z,96.80
2022-09-11T05:24:03.164Z,96.50
2022-09-11T05:26:32.697Z,96.90
2022-09-11T05:29:13.426Z,96.90
2022-09-11T05:31:43.053Z,96.90
2022-09-11T05:34:12.231Z,96.30
2022-09-11T05:36:39.030Z,96.40
2022-09-11T05:39:05.897Z,96.20
2022-09-11T05:41:32.666Z,96.30
2022-09-11T05:43:59.501Z,96.10
2022-09-11T05:46:26.415Z,95.60
2022-09-11T05:48:53.641Z,95.40
2022-09-11T05:51:22.039Z,95.00
2022-09-11T05:53:53.211Z,94.90
2022-09-11T05:56:25.147Z,94.60
2022-09-11T05:58:52.436Z,94.40
2022-09-11T06:01:21.707Z,94.50
2022-09-11T06:03:49.539Z,94.30
2022-09-11T06:06:18.769Z,94.00
2022-09-11T06:08:47.378Z,93.70
2022-09-11T06:11:17.293Z,93.40
2022-09-11T06:13:46.353Z,93.20
2022-09-11T06:16:18.255Z,92.70
2022-09-11T06:18:49.179Z,91.80
2022-09-11T06:21:20.230Z,91.50
2022-09-11T06:23:49.077Z,90.80
2022-09-11T06:26:18.421Z,90.10
2022-09-11T06:28:45.145Z,89.10
2022-09-11T06:31:16.283Z,88.30
2022-09-11T06:33:43.848Z,87.50
2022-09-11T06:36:13.589Z,86.80
2022-09-11T06:38:40.540Z,85.90
2022-09-11T06:41:13.965Z,84.80
2022-09-11T06:43:41.754Z,85.10
2022-09-11T06:46:24.726Z,85.20
2022-09-11T06:48:52.053Z,83.30
2022-09-11T06:51:20.592Z,83.90
2022-09-11T06:53:50.204Z,83.30
2022-09-11T06:56:18.637Z,82.70
2022-09-11T06:58:46.191Z,81.90
2022-09-11T07:01:15.828Z,82.00
2022-09-11T07:03:47.624Z,81.30
2022-09-11T07:06:16.236Z,81.70
2022-09-11T07:08:43.933Z,82.10
2022-09-11T07:11:14.744Z,81.80
2022-09-11T07:13:41.873Z,81.40
2022-09-11T07:16:10.690Z,81.00
2022-09-11T07:18:44.957Z,80.80
2022-09-11T07:21:25.434Z,80.90
2022-09-11T07:23:56.570Z,80.70
2022-09-11T07:26:25.870Z,80.10
2022-09-11T07:28:53.088Z,79.60
2022-09-11T07:31:25.038Z,79.20
2022-09-11T07:33:52.816Z,79.10
2022-09-11T07:36:22.216Z,77.40
2022-09-11T07:38:50.503Z,76.60
2022-09-11T07:41:19.742Z,75.20
2022-09-11T07:43:51.852Z,74.20
2022-09-11T07:46:18.568Z,74.80
2022-09-11T07:48:45.323Z,75.90
2022-09-11T07:51:16.811Z,75.60
2022-09-11T07:53:46.123Z,74.50
2022-09-11T07:56:15.523Z,74.50
2022-09-11T07:58:45.569Z,73.60
2022-09-11T08:01:17.463Z,72.00
2022-09-11T08:03:44.931Z,71.30
2022-09-11T08:06:21.918Z,69.70
2022-09-11T08:08:53.117Z,68.90
2022-09-11T08:11:25.599Z,67.80
2022-09-11T08:13:54.122Z,67.40
2022-09-11T08:16:23.453Z,66.70
2022-09-11T08:18:52.140Z,67.10
2022-09-11T08:21:22.287Z,67.30
2022-09-11T08:23:49.143Z,66.90
2022-09-11T08:26:26.921Z,65.70
2022-09-11T08:28:55.425Z,64.80
2022-09-11T08:31:26.812Z,65.20
2022-09-11T08:33:55.102Z,65.10
2022-09-11T08:36:25.073Z,65.40
2022-09-11T08:38:52.621Z,65.40
2022-09-11T08:41:36.441Z,65.80
2022-09-11T08:44:11.943Z,66.90
2022-09-11T08:46:48.361Z,66.60
2022-09-11T08:49:26.508Z,67.00
2022-09-11T08:51:58.676Z,66.80
2022-09-11T08:54:30.044Z,65.10
2022-09-11T08:57:26.490Z,64.60
2022-09-11T09:00:12.840Z,64.20
2022-09-11T09:02:55.044Z,63.30
2022-09-11T09:05:50.136Z,62.00
2022-09-11T09:08:50.927Z,61.50
2022-09-11T09:11:19.984Z,60.80
2022-09-11T09:14:06.728Z,61.60
2022-09-11T09:16:45.437Z,60.30
2022-09-11T09:19:19.691Z,59.90
2022-09-11T09:22:17.889Z,60.00
2022-09-11T09:25:04.703Z,58.30
2022-09-11T09:27:36.499Z,58.90
2022-09-11T09:30:13.366Z,58.60
2022-09-11T09:33:01.135Z,56.70
2022-09-11T09:35:44.558Z,56.20
2022-09-11T09:38:18.707Z,55.40
2022-09-11T09:41:27.221Z,57.20
2022-09-11T09:44:04.793Z,58.60
2022-09-11T09:46:50.845Z,60.30
2022-09-11T09:49:24.487Z,61.30
2022-09-11T09:51:51.801Z,61.30
2022-09-11T09:54:22.865Z,61.60
2022-09-11T09:57:11.552Z,61.40
2022-09-11T09:59:47.543Z,60.60
2022-09-11T10:02:40.588Z,58.60
2022-09-11T10:05:14.851Z,56.00
2022-09-11T10:08:03.531Z,54.20
2022-09-11T10:10:39.166Z,52.60
2022-09-11T10:13:25.027Z,54.20
2022-09-11T10:16:01.485Z,55.30
2022-09-11T10:18:42.228Z,55.90
2022-09-11T10:21:14.194Z,55.90
2022-09-11T10:24:09.838Z,55.30
2022-09-11T10:26:51.359Z,54.60
2022-09-11T10:29:22.802Z,54.20
2022-09-11T10:31:54.788Z,53.10
2022-09-11T10:34:27.218Z,51.60
2022-09-11T10:37:01.103Z,50.70
2022-09-11T10:39:35.269Z,49.90
2022-09-11T10:42:23.171Z,49.40
2022-09-11T10:44:53.652Z,48.60
2022-09-11T10:47:26.049Z,48.40
2022-09-11T10:50:29.260Z,50.10
2022-09-11T10:53:03.465Z,48.80
2022-09-11T10:55:40.230Z,48.50
2022-09-11T10:58:16.252Z,46.70
2022-09-11T11:00:43.260Z,46.00
2022-09-11T11:03:23.184Z,47.80
2022-09-11T11:05:59.604Z,49.40
2022-09-11T11:09:00.075Z,51.30
2022-09-11T11:11:56.130Z,53.10
2022-09-11T11:15:13.765Z,54.90
2022-09-11T11:18:05.729Z,55.20
2022-09-11T11:21:08.660Z,56.30
2022-09-11T11:23:56.584Z,55.20
2022-09-11T11:26:31.746Z,55.00
2022-09-11T11:29:28.987Z,55.30
2022-09-11T11:32:24.547Z,55.40
2022-09-11T11:35:19.752Z,54.90
2022-09-11T11:37:49.166Z,54.60
2022-09-11T11:40:21.478Z,52.80
2022-09-11T11:42:56.644Z,52.50
2022-09-11T11:45:43.812Z,50.50
2022-09-11T11:48:20.589Z,48.20
2022-09-11T11:50:55.671Z,46.50
2022-09-11T11:53:44.301Z,46.50
2022-09-11T11:56:29.991Z,46.50
2022-09-11T11:59:00.598Z,45.90
2022-09-11T12:01:40.183Z,46.50
2022-09-11T12:04:32.701Z,45.80
2022-09-11T12:07:00.112Z,42.20
2022-09-11T12:09:30.380Z,41.10
2022-09-11T12:12:06.495Z,39.40
2022-09-11T12:14:36.431Z,38.20
2022-09-11T12:17:25.627Z,38.10
2022-09-11T12:20:10.832Z,37.70
2022-09-11T12:22:42.812Z,38.00
2022-09-11T12:25:21.571Z,38.90
2022-09-11T12:27:52.256Z,41.40
2022-09-11T12:30:20.347Z,43.20
2022-09-11T12:32:59.073Z,45.90
2022-09-11T12:35:40.237Z,46.80
2022-09-11T12:38:07.132Z,47.90
2022-09-11T12:41:13.056Z,48.30
2022-09-11T12:43:41.308Z,49.20
2022-09-11T12:46:34.576Z,50.10
2022-09-11T12:49:22.194Z,50.20
2022-09-11T12:51:59.726Z,50.50
2022-09-11T12:54:39.702Z,50.20
2022-09-11T12:57:35.287Z,48.90
2022-09-11T13:00:11.807Z,48.80
2022-09-11T13:02:44.059Z,48.10
2022-09-11T13:05:23.243Z,47.20
2022-09-11T13:07:55.355Z,47.20
2022-09-11T13:10:37.524Z,47.40
2022-09-11T13:13:07.260Z,47.80
2022-09-11T13:15:42.843Z,46.50
2022-09-11T13:18:32.813Z,45.80
2022-09-11T13:21:14.433Z,45.90
2022-09-11T13:23:44.431Z,46.30
2022-09-11T13:26:18.240Z,46.40
2022-09-11T13:28:47.867Z,47.20
2022-09-11T13:31:34.106Z,47.00
2022-09-11T13:34:04.175Z,46.00
2022-09-11T13:36:33.487Z,45.70
2022-09-11T13:39:02.624Z,44.80
2022-09-11T13:41:33.214Z,45.10
2022-09-11T13:44:01.514Z,44.70
2022-09-11T13:46:31.770Z,43.70
2022-09-11T13:49:27.708Z,44.10
2022-09-11T13:51:57.177Z,43.70
2022-09-11T13:54:31.432Z,43.80
2022-09-11T13:56:58.197Z,42.20
2022-09-11T13:59:56.808Z,34.30
2022-09-11T14:02:37.988Z,30.40
2022-09-11T14:05:13.808Z,22.50
2022-09-11T14:07:48.679Z,14.20
2022-09-11T14:10:27.891Z,7.30
2022-09-11T14:13:16.886Z,5.00
2022-09-11T14:15:56.999Z,3.60
2022-09-11T14:18:28.696Z,2.50
2022-09-11T14:21:00.886Z,7.00
2022-09-11T14:23:31.795Z,5.40
2022-09-11T14:26:16.156Z,6.30
2022-09-11T14:29:02.539Z,7.70
2022-09-11T14:31:46.200Z,4.50
2022-09-11T14:34:29.747Z,3.90
2022-09-11T14:37:03.303Z,4.20
2022-09-11T14:39:43.460Z,10.50
2022-09-11T14:42:22.709Z,14.70
2022-09-11T14:44:49.730Z,19.70
2022-09-11T14:47:22.979Z,23.00
2022-09-11T14:49:53.473Z,24.30
2022-09-11T14:52:22.844Z,24.80
2022-09-11T14:54:49.818Z,26.50
2022-09-11T14:57:28.931Z,27.60
2022-09-11T14:59:55.775Z,28.20
2022-09-11T15:02:25.091Z,29.80
2022-09-11T15:04:53.830Z,32.00
2022-09-11T15:07:24.371Z,34.30
2022-09-11T15:09:57.494Z,36.90
2022-09-11T15:12:24.198Z,38.80
2022-09-11T15:14:59.244Z,42.40
2022-09-11T15:17:31.487Z,43.20
2022-09-11T15:20:00.626Z,44.90
2022-09-11T15:22:28.116Z,45.90
2022-09-11T15:24:58.097Z,46.70
2022-09-11T15:27:28.180Z,48.20
2022-09-11T15:29:55.138Z,49.30
2022-09-11T15:32:22.429Z,50.40
2022-09-11T15:34:49.475Z,51.90
2022-09-11T15:37:16.981Z,51.40
2022-09-11T15:39:44.389Z,49.40
2022-09-11T15:42:13.880Z,50.30
2022-09-11T15:44:41.009Z,50.80
2022-09-11T15:47:08.898Z,50.60
2022-09-11T15:49:40.638Z,50.20
2022-09-11T15:52:08.503Z,49.50
2022-09-11T15:54:37.507Z,49.50
2022-09-11T15:57:06.597Z,49.70
2022-09-11T15:59:33.642Z,49.50
2022-09-11T16:02:02.835Z,50.00
2022-09-11T16:04:32.161Z,50.10
2022-09-11T16:07:01.903Z,50.40
2022-09-11T16:09:31.156Z,51.40
2022-09-11T16:12:01.675Z,51.30
2022-09-11T16:14:31.989Z,51.30
2022-09-11T16:16:59.724Z,51.90
2022-09-11T16:19:28.401Z,51.40
2022-09-11T16:22:01.826Z,51.80
2022-09-11T16:24:31.519Z,51.60
2022-09-11T16:27:01.641Z,51.70
2022-09-11T16:29:51.490Z,52.10
2022-09-11T16:32:28.293Z,52.60
2022-09-11T16:34:57.259Z,52.80
2022-09-11T16:37:28.134Z,53.10
2022-09-11T16:39:57.829Z,53.40
2022-09-11T16:42:28.058Z,52.80
2022-09-11T16:44:57.206Z,52.90
2022-09-11T16:47:24.169Z,53.00
2022-09-11T16:50:06.360Z,53.30
2022-09-11T16:52:36.978Z,53.70
2022-09-11T16:55:08.041Z,53.70
2022-09-11T16:57:35.377Z,54.20
2022-09-11T17:00:06.386Z,54.10
2022-09-11T17:02:33.575Z,54.70
2022-09-11T17:05:00.379Z,55.50
2022-09-11T17:07:27.419Z,56.60
2022-09-11T17:09:54.644Z,57.20
2022-09-11T17:12:22.259Z,58.10
2022-09-11T17:14:50.090Z,58.00
2022-09-11T17:17:16.850Z,58.20
2022-09-11T17:19:43.609Z,58.20
2022-09-11T17:22:10.605Z,58.20
2022-09-11T17:24:37.820Z,58.30
2022-09-11T17:27:04.840Z,58.90
2022-09-11T17:29:31.829Z,59.30
2022-09-11T17:32:23.910Z,60.10
2022-09-11T17:34:46.913Z,60.90
2022-09-11T17:37:14.601Z,63.00
2022-09-11T17:39:42.459Z,64.60
2022-09-11T17:42:13.375Z,65.70
2022-09-11T17:44:43.127Z,67.10
2022-09-11T17:47:12.028Z,68.10
2022-09-11T17:49:38.771Z,68.70
2022-09-11T17:52:06.017Z,68.90
2022-09-11T17:54:32.822Z,69.60
2022-09-11T17:56:59.554Z,69.70
2022-09-11T17:59:26.516Z,69.70
2022-09-11T18:01:53.566Z,70.30
2022-09-11T18:04:23.004Z,70.90
2022-09-11T18:06:51.159Z,73.00
2022-09-11T18:09:19.762Z,73.50
2022-09-11T18:11:48.910Z,75.40
2022-09-11T18:14:18.817Z,76.90
2022-09-11T18:16:47.289Z,78.00
2022-09-11T18:19:20.380Z,79.40
2022-09-11T18:21:50.370Z,80.90
2022-09-11T18:24:21.485Z,81.90
2022-09-11T18:26:50.944Z,83.00
2022-09-11T18:29:20.231Z,84.70
2022-09-11T18:31:50.078Z,86.20
2022-09-11T18:34:20.053Z,87.70
2022-09-11T18:36:47.756Z,89.50
2022-09-11T18:39:17.801Z,90.60
2022-09-11T18:41:46.112Z,91.30
2022-09-11T18:44:19.441Z,92.00
2022-09-11T18:46:47.163Z,92.60
2022-09-11T18:49:15.718Z,93.30
2022-09-11T18:51:42.825Z,93.90
2022-09-11T18:54:15.056Z,94.60
2022-09-11T18:56:42.776Z,95.20
2022-09-11T18:59:13.272Z,95.70
2022-09-11T19:01:42.760Z,96.30
2022-09-11T19:04:11.502Z,97.00
2022-09-11T19:06:39.067Z,97.80
2022-09-11T19:09:12.316Z,98.60
2022-09-11T19:11:42.151Z,99.50
2022-09-11T19:14:10.844Z,99.90
2022-09-11T19:16:38.841Z,99.90
2022-09-11T19:19:08.778Z,99.90
2022-09-11T19:21:38.875Z,99.90
2022-09-11T19:24:07.683Z,99.90
2022-09-11T19:26:40.742Z,99.90
2022-09-11T19:29:11.065Z,99.90
2022-09-11T19:31:39.163Z,99.90
2022-09-11T19:34:07.722Z,99.90
2022-09-11T19:36:40.322Z,99.90
2022-09-11T19:39:07.476Z,99.90
2022-09-11T19:41:38.801Z,99.90
2022-09-11T19:44:08.386Z,99.90
2022-09-11T19:46:38.192Z,99.90
2022-09-11T19:49:06.437Z,99.90
2022-09-11T19:51:40.224Z,99.90
2022-09-11T19:54:08.316Z,99.90
2022-09-11T19:56:40.365Z,99.90
2022-09-11T19:59:08.581Z,99.90
2022-09-11T20:01:35.516Z,99.90
2022-09-11T20:04:05.080Z,99.90
2022-09-11T20:06:36.188Z,99.90
2022-09-11T20:09:29.943Z,99.90
2022-09-11T20:11:56.526Z,99.90
2022-09-11T20:14:23.443Z,99.90
2022-09-11T20:16:50.256Z,99.90
2022-09-11T20:19:17.442Z,99.90
2022-09-11T20:21:46.538Z,99.90
2022-09-11T20:24:14.943Z,99.90
2022-09-11T20:26:42.104Z,99.90
2022-09-11T20:29:13.408Z,99.90
2022-09-11T20:31:46.872Z,99.90
2022-09-11T20:34:18.468Z,99.90
2022-09-11T20:36:45.933Z,99.90
2022-09-11T20:39:16.143Z,99.90
2022-09-11T20:41:43.711Z,99.90
2022-09-11T20:44:13.220Z,99.90
2022-09-11T20:46:43.688Z,99.90
2022-09-11T20:49:11.427Z,99.90
2022-09-11T20:51:38.150Z,99.90
2022-09-11T20:54:05.045Z,99.90
2022-09-11T20:56:34.766Z,99.90
2022-09-11T20:59:01.570Z,99.90
2022-09-11T21:01:32.458Z,99.90
2022-09-11T21:04:00.977Z,99.90
2022-09-11T21:06:30.664Z,99.90
2022-09-11T21:09:03.956Z,99.90
2022-09-11T21:11:31.290Z,99.90
2022-09-11T21:13:58.964Z,99.90
2022-09-11T21:16:26.296Z,99.90
2022-09-11T21:18:55.299Z,99.90
2022-09-11T21:21:23.846Z,99.90
2022-09-11T21:23:57.435Z,99.90
2022-09-11T21:26:26.161Z,99.90
2022-09-11T21:28:53.095Z,99.70
2022-09-11T21:31:20.103Z,98.20
2022-09-11T21:33:47.042Z,96.70
2022-09-11T21:36:16.373Z,95.10
2022-09-11T21:38:43.321Z,93.40
2022-09-11T21:41:14.445Z,92.20
2022-09-11T21:43:41.269Z,90.60
2022-09-11T21:46:11.793Z,90.50
2022-09-11T21:48:43.916Z,90.40
2022-09-11T21:51:15.847Z,90.10
2022-09-11T21:53:45.132Z,89.70
2022-09-11T21:56:26.779Z,89.90
2022-09-11T21:58:56.899Z,89.60
2022-09-11T22:01:25.703Z,88.80
2022-09-11T22:03:53.451Z,87.40
2022-09-11T22:06:24.573Z,85.90
2022-09-11T22:08:53.371Z,85.30
2022-09-11T22:11:20.601Z,84.20
2022-09-11T22:13:47.838Z,83.90
2022-09-11T22:16:18.040Z,83.50
2022-09-11T22:18:49.187Z,82.70
2022-09-11T22:21:16.562Z,81.70
2022-09-11T22:23:43.451Z,81.30
2022-09-11T22:26:16.288Z,81.00
2022-09-11T22:28:43.751Z,80.30
2022-09-11T22:31:15.826Z,79.70
2022-09-11T22:33:43.183Z,79.10
2022-09-11T22:36:16.409Z,78.50
2022-09-11T22:38:43.335Z,78.20
2022-09-11T22:41:10.300Z,77.60
2022-09-11T22:43:39.615Z,77.30
2022-09-11T22:46:06.905Z,76.50
2022-09-11T22:48:34.081Z,76.30
2022-09-11T22:51:04.866Z,76.00
2022-09-11T22:53:32.508Z,75.40
2022-09-11T22:55:59.978Z,75.30
2022-09-11T22:58:30.590Z,75.30
2022-09-11T23:00:58.256Z,75.30
2022-09-11T23:03:25.193Z,75.30
2022-09-11T23:06:15.164Z,75.60
2022-09-11T23:08:42.561Z,76.10
2022-09-11T23:11:11.177Z,76.40
2022-09-11T23:13:38.071Z,77.00
2022-09-11T23:16:15.361Z,77.70
2022-09-11T23:18:45.108Z,78.50
2022-09-11T23:21:12.415Z,79.40
2022-09-11T23:23:45.449Z,80.50
2022-09-11T23:26:13.973Z,81.30
2022-09-11T23:28:41.211Z,81.70
2022-09-11T23:31:20.273Z,81.70
2022-09-11T23:33:49.551Z,82.20
2022-09-11T23:36:19.027Z,82.60
2022-09-11T23:38:47.276Z,83.20
2022-09-11T23:41:14.951Z,83.30
2022-09-11T23:43:42.255Z,83.90
2022-09-11T23:46:09.603Z,84.30
2022-09-11T23:48:36.917Z,84.70
2022-09-11T23:51:03.768Z,84.80
2022-09-11T23:53:32.817Z,85.00
2022-09-11T23:56:02.212Z,85.60
2022-09-11T23:58:29.025Z,85.90
